Time;durP1;ratioP1;P1;durP2;ratioP2;P2;SDS_P1;SDS_P2;PMS_P1;PMS_P2;Temp;Humidity;BMP_temperature;BMP_pressure;BME280_temperature;BME280_humidity;BME280_pressure;Samples;Min_cycle;Max_cycle;Signal;HPM_P1;HPM_P2
2024/01/04 00:00:32;;;;;;;1.33;1.33;;;;;;;;;;6386355;27;20316;-69
2024/01/04 00:03:36;;;;;;;2.63;1.40;;;;;;;;;;6386009;27;20305;-68
2024/01/04 00:06:44;;;;;;;1.53;1.40;;;;;;;;;;6386716;27;20389;-69
2024/01/04 00:09:48;;;;;;;1.60;1.50;;;;;;;;;;6382060;27;20605;-69
2024/01/04 00:12:53;;;;;;;1.23;1.23;;;;;;;;;;6360863;27;20294;-69
2024/01/04 00:15:58;;;;;;;1.37;1.37;;;;;;;;;;6360556;28;20293;-69
2024/01/04 00:19:03;;;;;;;2.03;1.60;;;;;;;;;;6360643;28;20289;-68
2024/01/04 00:22:07;;;;;;;1.63;1.53;;;;;;;;;;6400402;27;20392;-69
2024/01/04 00:25:10;;;;;;;1.60;1.60;;;;;;;;;;6411723;27;20297;-69
2024/01/04 00:28:14;;;;;;;1.23;1.23;;;;;;;;;;6404786;27;20531;-69
2024/01/04 00:31:20;;;;;;;1.57;1.57;;;;;;;;;;6410372;27;20288;-69
2024/01/04 00:34:24;;;;;;;1.83;1.73;;;;;;;;;;6411367;27;20289;-69
2024/01/04 00:37:28;;;;;;;1.47;1.37;;;;;;;;;;6410290;27;20294;-69
2024/01/04 00:40:35;;;;;;;1.80;1.80;;;;;;;;;;6410955;27;20289;-70
2024/01/04 00:43:39;;;;;;;1.63;1.50;;;;;;;;;;6373224;27;20284;-71
2024/01/04 00:46:45;;;;;;;1.67;1.60;;;;;;;;;;6342639;28;20301;-70
2024/01/04 00:49:48;;;;;;;1.50;1.40;;;;;;;;;;6341885;28;20290;-70
2024/01/04 00:52:52;;;;;;;1.53;1.43;;;;;;;;;;6360621;28;20387;-70
2024/01/04 00:56:09;;;;;;;2.93;1.60;;;;;;;;;;6359253;28;20282;-70
2024/01/04 00:59:13;;;;;;;1.67;1.67;;;;;;;;;;6359653;28;20300;-68
2024/01/04 01:02:18;;;;;;;1.90;1.90;;;;;;;;;;6360097;28;20240;-70
2024/01/04 01:05:22;;;;;;;1.80;1.80;;;;;;;;;;6359428;28;20293;-68
2024/01/04 01:08:26;;;;;;;2.40;2.30;;;;;;;;;;6340724;28;20289;-70
2024/01/04 01:11:30;;;;;;;1.80;1.80;;;;;;;;;;6375707;27;20287;-69
2024/01/04 01:14:34;;;;;;;1.73;1.70;;;;;;;;;;6410830;27;20283;-69
2024/01/04 01:17:40;;;;;;;1.93;1.90;;;;;;;;;;6411040;27;20288;-69
2024/01/04 01:20:44;;;;;;;1.67;1.67;;;;;;;;;;6390964;27;20288;-68
2024/01/04 01:23:49;;;;;;;2.10;1.87;;;;;;;;;;6410009;27;20288;-69
2024/01/04 01:26:53;;;;;;;2.30;1.73;;;;;;;;;;6391811;27;20444;-69
2024/01/04 01:29:56;;;;;;;1.87;1.87;;;;;;;;;;6390927;27;20285;-69
2024/01/04 01:33:02;;;;;;;2.13;2.00;;;;;;;;;;6365739;28;20301;-69
2024/01/04 01:36:07;;;;;;;1.90;1.90;;;;;;;;;;6366452;28;20297;-69
2024/01/04 01:39:11;;;;;;;2.67;2.43;;;;;;;;;;6365848;28;20391;-69
2024/01/04 01:42:20;;;;;;;2.47;2.30;;;;;;;;;;6383081;28;20295;-69
2024/01/04 01:45:24;;;;;;;1.80;1.80;;;;;;;;;;6384610;28;20476;-69
2024/01/04 01:48:30;;;;;;;3.30;1.97;;;;;;;;;;6384402;28;20288;-69
2024/01/04 01:51:34;;;;;;;2.20;2.00;;;;;;;;;;6384861;28;20565;-69
2024/01/04 01:54:39;;;;;;;2.93;2.30;;;;;;;;;;6384191;28;20293;-69
2024/01/04 01:57:43;;;;;;;2.00;2.00;;;;;;;;;;6365952;28;20297;-69
2024/01/04 02:00:47;;;;;;;2.30;2.10;;;;;;;;;;6384390;28;20293;-69
2024/01/04 02:03:52;;;;;;;1.97;1.97;;;;;;;;;;6384286;28;20297;-69
2024/01/04 02:06:57;;;;;;;2.37;2.20;;;;;;;;;;6384479;28;20300;-69
2024/01/04 02:10:01;;;;;;;2.27;2.17;;;;;;;;;;6364533;27;20309;-69
2024/01/04 02:13:05;;;;;;;2.30;2.20;;;;;;;;;;6409331;27;20292;-70
2024/01/04 02:16:09;;;;;;;1.97;1.90;;;;;;;;;;6408560;27;20284;-69
2024/01/04 02:19:15;;;;;;;1.93;1.83;;;;;;;;;;6390840;27;20300;-69
2024/01/04 02:22:19;;;;;;;2.30;2.20;;;;;;;;;;6407971;27;20483;-69
2024/01/04 02:25:25;;;;;;;2.17;2.07;;;;;;;;;;6409520;27;20300;-70
2024/01/04 02:28:29;;;;;;;2.13;2.10;;;;;;;;;;6402578;27;20284;-69
2024/01/04 02:31:33;;;;;;;2.30;2.20;;;;;;;;;;6411507;27;20291;-70
2024/01/04 02:34:37;;;;;;;2.40;2.30;;;;;;;;;;6414506;27;20451;-69
2024/01/04 02:37:41;;;;;;;2.33;2.23;;;;;;;;;;6414890;27;20355;-69
2024/01/04 02:40:46;;;;;;;2.40;2.20;;;;;;;;;;6412635;27;20285;-69
2024/01/04 02:43:50;;;;;;;2.57;2.47;;;;;;;;;;6414230;27;20298;-69
2024/01/04 02:46:54;;;;;;;2.17;2.07;;;;;;;;;;6415087;27;20291;-70
2024/01/04 02:49:58;;;;;;;2.20;2.10;;;;;;;;;;6412126;27;20288;-69
2024/01/04 02:53:02;;;;;;;3.30;2.30;;;;;;;;;;6413958;27;20288;-70
2024/01/04 02:56:07;;;;;;;2.27;2.20;;;;;;;;;;6413495;27;20274;-69
2024/01/04 02:59:12;;;;;;;2.37;2.23;;;;;;;;;;6411666;27;20292;-69
2024/01/04 03:02:16;;;;;;;2.20;2.10;;;;;;;;;;6414674;27;20241;-70
2024/01/04 03:05:20;;;;;;;2.07;2.07;;;;;;;;;;6394403;27;20597;-68
2024/01/04 03:08:24;;;;;;;2.37;2.17;;;;;;;;;;6413025;27;20303;-68
2024/01/04 03:11:29;;;;;;;2.27;1.90;;;;;;;;;;6395874;27;20310;-69
2024/01/04 03:14:33;;;;;;;1.77;1.77;;;;;;;;;;6387711;27;20570;-69
2024/01/04 03:17:37;;;;;;;1.93;1.83;;;;;;;;;;6387986;27;20284;-69
2024/01/04 03:20:41;;;;;;;2.57;2.10;;;;;;;;;;6387735;27;20296;-69
2024/01/04 03:23:45;;;;;;;1.90;1.80;;;;;;;;;;6387036;27;20288;-69
2024/01/04 03:26:51;;;;;;;1.60;1.60;;;;;;;;;;6387869;27;20288;-69
2024/01/04 03:29:55;;;;;;;1.93;1.87;;;;;;;;;;6380422;27;20592;-69
2024/01/04 03:32:59;;;;;;;1.80;1.80;;;;;;;;;;6387681;27;20295;-71
2024/01/04 03:36:05;;;;;;;2.57;1.60;;;;;;;;;;6387229;27;20308;-69
2024/01/04 03:39:09;;;;;;;2.60;2.10;;;;;;;;;;6384857;27;20456;-70
2024/01/04 03:42:15;;;;;;;2.57;1.60;;;;;;;;;;6386871;27;20300;-69
2024/01/04 03:45:19;;;;;;;1.60;1.60;;;;;;;;;;6387316;27;20297;-69
2024/01/04 03:48:23;;;;;;;1.87;1.83;;;;;;;;;;6386506;27;20301;-69
2024/01/04 03:51:28;;;;;;;4.50;1.87;;;;;;;;;;6387252;27;20308;-69
2024/01/04 03:54:31;;;;;;;1.93;1.80;;;;;;;;;;6386906;27;20292;-69
2024/01/04 03:57:37;;;;;;;1.80;1.70;;;;;;;;;;6387642;27;20553;-69
2024/01/04 04:00:41;;;;;;;1.80;1.80;;;;;;;;;;6386677;27;20296;-69
2024/01/04 04:03:45;;;;;;;1.93;1.87;;;;;;;;;;6361785;27;20287;-69
2024/01/04 04:06:49;;;;;;;1.70;1.70;;;;;;;;;;6373935;27;20305;-69
2024/01/04 04:09:53;;;;;;;1.90;1.90;;;;;;;;;;6361133;27;20296;-69
2024/01/04 04:12:58;;;;;;;1.90;1.90;;;;;;;;;;6367042;27;20472;-69
2024/01/04 04:16:02;;;;;;;1.90;1.80;;;;;;;;;;6386637;27;20381;-69
2024/01/04 04:19:06;;;;;;;1.80;1.80;;;;;;;;;;6378244;27;20288;-70
2024/01/04 04:22:10;;;;;;;1.53;1.53;;;;;;;;;;6401166;27;20295;-69
2024/01/04 04:25:14;;;;;;;3.33;1.67;;;;;;;;;;6411515;27;20297;-69
2024/01/04 04:28:20;;;;;;;1.90;1.90;;;;;;;;;;6404415;27;20288;-69
2024/01/04 04:31:24;;;;;;;2.47;1.80;;;;;;;;;;6411822;27;20474;-69
2024/01/04 04:34:30;;;;;;;1.40;1.40;;;;;;;;;;6412672;27;20291;-69
2024/01/04 04:37:34;;;;;;;2.00;1.67;;;;;;;;;;6391475;27;20575;-69
2024/01/04 04:40:37;;;;;;;1.70;1.70;;;;;;;;;;6386016;27;20300;-69
2024/01/04 04:43:43;;;;;;;1.83;1.80;;;;;;;;;;6385292;27;20287;-69
2024/01/04 04:46:47;;;;;;;1.70;1.60;;;;;;;;;;6385682;27;20322;-69
2024/01/04 04:49:50;;;;;;;1.90;1.80;;;;;;;;;;6385278;27;20289;-69
2024/01/04 04:52:54;;;;;;;2.17;1.97;;;;;;;;;;6385293;27;20288;-69
2024/01/04 04:55:58;;;;;;;1.70;1.60;;;;;;;;;;6384946;27;20308;-69
2024/01/04 04:59:05;;;;;;;2.17;2.07;;;;;;;;;;6385062;27;20340;-70
2024/01/04 05:02:10;;;;;;;2.00;1.90;;;;;;;;;;6385093;27;20285;-70
2024/01/04 05:05:14;;;;;;;4.40;2.00;;;;;;;;;;6385179;27;20291;-69
2024/01/04 05:08:18;;;;;;;1.67;1.67;;;;;;;;;;6383015;27;20291;-70
2024/01/04 05:11:22;;;;;;;2.00;2.00;;;;;;;;;;6396232;27;20435;-68
2024/01/04 05:14:27;;;;;;;1.50;1.50;;;;;;;;;;6410640;27;20287;-68
2024/01/04 05:17:31;;;;;;;1.87;1.87;;;;;;;;;;6411035;27;20283;-68
2024/01/04 05:20:35;;;;;;;1.73;1.63;;;;;;;;;;6410255;27;20345;-69
2024/01/04 05:23:38;;;;;;;1.63;1.53;;;;;;;;;;6410087;27;20462;-69
2024/01/04 05:26:42;;;;;;;1.60;1.60;;;;;;;;;;6410563;27;20299;-69
2024/01/04 05:29:48;;;;;;;1.50;1.50;;;;;;;;;;6403150;27;20281;-69
2024/01/04 05:32:52;;;;;;;1.90;1.60;;;;;;;;;;6410402;27;20299;-69
2024/01/04 05:35:56;;;;;;;1.80;1.60;;;;;;;;;;6410767;27;20312;-69
2024/01/04 05:39:00;;;;;;;1.70;1.70;;;;;;;;;;6410308;27;20288;-69
2024/01/04 05:42:04;;;;;;;1.50;1.50;;;;;;;;;;6410536;27;20303;-69
2024/01/04 05:45:10;;;;;;;1.67;1.67;;;;;;;;;;6410312;27;20295;-71
2024/01/04 05:48:14;;;;;;;1.67;1.63;;;;;;;;;;6410221;27;20296;-70
2024/01/04 05:51:18;;;;;;;1.60;1.60;;;;;;;;;;6410761;27;20292;-70
2024/01/04 05:54:23;;;;;;;1.50;1.50;;;;;;;;;;6409922;27;20297;-70
2024/01/04 05:57:27;;;;;;;2.80;1.90;;;;;;;;;;6410669;27;20299;-70
2024/01/04 06:00:33;;;;;;;1.37;1.37;;;;;;;;;;6410253;27;20311;-70
2024/01/04 06:03:37;;;;;;;3.90;1.53;;;;;;;;;;6409693;27;20583;-70
2024/01/04 06:06:41;;;;;;;2.10;1.83;;;;;;;;;;6413953;27;20296;-72
2024/01/04 06:09:45;;;;;;;1.87;1.77;;;;;;;;;;6393375;27;20289;-70
2024/01/04 06:12:49;;;;;;;1.60;1.60;;;;;;;;;;6389578;27;20397;-70
2024/01/04 06:15:54;;;;;;;2.37;1.57;;;;;;;;;;6390153;27;20582;-70
2024/01/04 06:18:58;;;;;;;1.70;1.70;;;;;;;;;;6389338;27;20288;-70
2024/01/04 06:22:02;;;;;;;1.93;1.80;;;;;;;;;;6389309;27;20289;-70
2024/01/04 06:25:07;;;;;;;2.07;1.97;;;;;;;;;;6388929;27;20293;-70
2024/01/04 06:28:11;;;;;;;1.80;1.70;;;;;;;;;;6381528;27;20299;-70
2024/01/04 06:31:16;;;;;;;1.83;1.83;;;;;;;;;;6389643;27;20293;-70
2024/01/04 06:34:20;;;;;;;2.10;1.43;;;;;;;;;;6389041;27;20311;-70
2024/01/04 06:37:25;;;;;;;1.87;1.40;;;;;;;;;;6389334;27;20295;-69
2024/01/04 06:40:28;;;;;;;1.50;1.50;;;;;;;;;;6388686;27;20300;-69
2024/01/04 06:43:32;;;;;;;1.57;1.57;;;;;;;;;;6388498;27;20302;-69
2024/01/04 06:46:37;;;;;;;2.50;1.93;;;;;;;;;;6388936;27;20600;-69
2024/01/04 06:49:41;;;;;;;1.90;1.90;;;;;;;;;;6388373;27;20305;-69
2024/01/04 06:52:45;;;;;;;2.50;2.30;;;;;;;;;;6388224;27;20608;-70
2024/01/04 06:55:49;;;;;;;2.30;2.30;;;;;;;;;;6388860;27;20295;-69
2024/01/04 06:58:53;;;;;;;2.53;2.53;;;;;;;;;;6388537;27;20300;-69
2024/01/04 07:01:59;;;;;;;2.67;2.57;;;;;;;;;;6388856;27;20291;-69
2024/01/04 07:05:03;;;;;;;2.93;2.80;;;;;;;;;;6388302;27;20300;-69
2024/01/04 07:08:08;;;;;;;2.70;2.60;;;;;;;;;;6386901;27;20310;-69
2024/01/04 07:11:12;;;;;;;2.67;2.63;;;;;;;;;;6372710;27;20257;-69
2024/01/04 07:14:15;;;;;;;3.33;3.03;;;;;;;;;;6362445;28;20296;-69
2024/01/04 07:17:21;;;;;;;2.60;2.40;;;;;;;;;;6361780;28;20287;-70
2024/01/04 07:20:25;;;;;;;3.03;2.83;;;;;;;;;;6363554;27;20290;-69
2024/01/04 07:23:30;;;;;;;2.60;2.60;;;;;;;;;;6413221;27;20291;-69
2024/01/04 07:26:34;;;;;;;2.57;2.47;;;;;;;;;;6413573;27;20370;-69
2024/01/04 07:29:38;;;;;;;2.80;2.60;;;;;;;;;;6405722;27;20293;-69
2024/01/04 07:32:44;;;;;;;2.90;2.80;;;;;;;;;;6413057;27;20294;-69
2024/01/04 07:35:48;;;;;;;2.97;2.77;;;;;;;;;;6413253;27;20283;-69
2024/01/04 07:38:52;;;;;;;2.67;2.63;;;;;;;;;;6412699;27;20294;-69
2024/01/04 07:41:56;;;;;;;2.77;2.60;;;;;;;;;;6413618;27;20290;-69
2024/01/04 07:45:00;;;;;;;2.50;2.30;;;;;;;;;;6412727;27;20293;-70
2024/01/04 07:48:12;;;;;;;3.13;2.93;;;;;;;;;;6393793;27;20467;-69
2024/01/04 07:51:16;;;;;;;3.43;2.80;;;;;;;;;;6413352;27;20286;-69
2024/01/04 07:54:20;;;;;;;2.87;2.77;;;;;;;;;;6412822;27;20291;-69
2024/01/04 07:57:25;;;;;;;2.80;2.70;;;;;;;;;;6413134;27;20285;-69
2024/01/04 08:00:29;;;;;;;2.53;2.40;;;;;;;;;;6412535;27;20289;-70
2024/01/04 08:03:34;;;;;;;2.70;2.60;;;;;;;;;;6412412;27;20357;-71
2024/01/04 08:06:38;;;;;;;2.97;2.87;;;;;;;;;;6412835;27;20294;-69
2024/01/04 08:09:42;;;;;;;3.07;2.80;;;;;;;;;;6409343;27;20431;-69
2024/01/04 08:12:46;;;;;;;2.33;2.30;;;;;;;;;;6386868;27;20296;-69
2024/01/04 08:15:50;;;;;;;3.13;2.97;;;;;;;;;;6387260;27;20321;-69
2024/01/04 08:18:55;;;;;;;3.90;2.53;;;;;;;;;;6386717;27;20289;-69
2024/01/04 08:22:00;;;;;;;2.73;2.63;;;;;;;;;;6387050;27;20301;-69
2024/01/04 08:25:05;;;;;;;2.60;2.50;;;;;;;;;;6386235;27;20297;-70
2024/01/04 08:28:10;;;;;;;2.50;2.30;;;;;;;;;;6379814;27;20595;-69
2024/01/04 08:31:14;;;;;;;6.10;3.03;;;;;;;;;;6386504;27;20302;-69
2024/01/04 08:34:19;;;;;;;2.40;2.40;;;;;;;;;;6386426;27;20298;-69
2024/01/04 08:37:23;;;;;;;3.03;2.90;;;;;;;;;;6386589;27;20577;-69
2024/01/04 08:40:28;;;;;;;2.50;2.50;;;;;;;;;;6385865;27;20293;-69
2024/01/04 08:43:32;;;;;;;2.57;2.47;;;;;;;;;;6385750;27;20307;-69
2024/01/04 08:46:37;;;;;;;2.60;2.50;;;;;;;;;;6386052;27;20343;-69
2024/01/04 08:49:43;;;;;;;2.40;2.30;;;;;;;;;;6385639;27;20299;-70
2024/01/04 08:52:47;;;;;;;2.47;2.47;;;;;;;;;;6384424;27;20285;-70
2024/01/04 08:55:51;;;;;;;2.53;2.43;;;;;;;;;;6385952;27;20300;-69
2024/01/04 08:58:55;;;;;;;2.30;2.20;;;;;;;;;;6385221;27;20602;-69
2024/01/04 09:01:59;;;;;;;2.90;2.63;;;;;;;;;;6385187;27;20290;-69
2024/01/04 09:05:05;;;;;;;3.00;2.90;;;;;;;;;;6385298;27;20288;-69
2024/01/04 09:08:09;;;;;;;2.50;2.50;;;;;;;;;;6384277;27;20286;-70
2024/01/04 09:11:13;;;;;;;3.93;2.93;;;;;;;;;;6370166;27;20253;-70
2024/01/04 09:14:17;;;;;;;2.73;2.63;;;;;;;;;;6359359;28;20292;-70
2024/01/04 09:17:21;;;;;;;2.97;2.83;;;;;;;;;;6360326;28;20238;-70
2024/01/04 09:20:27;;;;;;;2.77;2.60;;;;;;;;;;6361038;27;20300;-70
2024/01/04 09:23:31;;;;;;;3.07;2.87;;;;;;;;;;6392184;27;20322;-69
2024/01/04 09:26:37;;;;;;;5.20;2.63;;;;;;;;;;6392964;27;20557;-70
2024/01/04 09:29:42;;;;;;;2.80;2.70;;;;;;;;;;6404075;27;20292;-70
2024/01/04 09:32:46;;;;;;;2.47;2.30;;;;;;;;;;6410803;27;20296;-69
2024/01/04 09:35:51;;;;;;;3.20;3.00;;;;;;;;;;6410277;27;20487;-68
2024/01/04 09:38:55;;;;;;;2.60;2.40;;;;;;;;;;6410874;27;20282;-69
2024/01/04 09:42:01;;;;;;;2.50;2.30;;;;;;;;;;6410803;27;20295;-69
2024/01/04 09:45:08;;;;;;;2.40;2.30;;;;;;;;;;6410581;27;20289;-69
2024/01/04 09:48:14;;;;;;;2.57;2.47;;;;;;;;;;6409625;27;20288;-69
2024/01/04 09:51:34;;;;;;;1.90;1.90;;;;;;;;;;6392160;27;20309;-69
2024/01/04 09:54:38;;;;;;;2.77;2.53;;;;;;;;;;6410517;27;20302;-70
2024/01/04 09:57:42;;;;;;;2.13;2.13;;;;;;;;;;6391033;27;20296;-69
2024/01/04 10:00:46;;;;;;;2.17;2.17;;;;;;;;;;6411046;27;20482;-69
2024/01/04 10:03:50;;;;;;;2.30;2.20;;;;;;;;;;6410135;27;20464;-69
2024/01/04 10:06:59;;;;;;;2.63;2.53;;;;;;;;;;6411127;27;20307;-69
2024/01/04 10:10:07;;;;;;;2.67;2.47;;;;;;;;;;6404358;27;20297;-68
2024/01/04 10:13:12;;;;;;;2.47;2.47;;;;;;;;;;6384445;28;20293;-69
2024/01/04 10:16:17;;;;;;;2.10;2.10;;;;;;;;;;6385336;28;20301;-68
2024/01/04 10:19:20;;;;;;;2.70;2.50;;;;;;;;;;6379402;28;20298;-69
2024/01/04 10:22:26;;;;;;;2.20;2.10;;;;;;;;;;6382039;27;20294;-69
2024/01/04 10:25:30;;;;;;;2.37;2.23;;;;;;;;;;6384303;28;20305;-68
2024/01/04 10:28:35;;;;;;;6.20;2.50;;;;;;;;;;6377251;28;20296;-68
2024/01/04 10:31:39;;;;;;;2.63;2.53;;;;;;;;;;6384803;28;20302;-68
2024/01/04 10:34:44;;;;;;;2.73;2.53;;;;;;;;;;6384310;28;20292;-69
2024/01/04 10:37:59;;;;;;;2.60;2.40;;;;;;;;;;6383700;28;20301;-68
2024/01/04 10:41:04;;;;;;;3.17;2.43;;;;;;;;;;6384184;28;20479;-67
2024/01/04 10:44:08;;;;;;;2.40;2.40;;;;;;;;;;6383127;28;20290;-67
2024/01/04 10:47:14;;;;;;;2.40;2.30;;;;;;;;;;6384018;27;20413;-68
2024/01/04 10:50:19;;;;;;;5.13;2.63;;;;;;;;;;6384191;28;20294;-68
2024/01/04 10:53:25;;;;;;;2.20;2.10;;;;;;;;;;6386113;27;20293;-69
2024/01/04 10:56:30;;;;;;;2.53;2.40;;;;;;;;;;6388817;27;20289;-68
2024/01/04 10:59:34;;;;;;;2.47;2.33;;;;;;;;;;6388131;27;20285;-70
2024/01/04 11:02:40;;;;;;;2.20;2.20;;;;;;;;;;6388752;27;20566;-70
2024/01/04 11:05:45;;;;;;;2.50;2.40;;;;;;;;;;6388888;27;20288;-73
2024/01/04 11:08:50;;;;;;;1.80;1.80;;;;;;;;;;6388649;27;20289;-71
2024/01/04 11:11:56;;;;;;;2.60;2.40;;;;;;;;;;6367148;27;20284;-72
2024/01/04 11:15:00;;;;;;;2.50;2.10;;;;;;;;;;6362875;28;20301;-71
2024/01/04 11:18:26;;;;;;;2.73;2.53;;;;;;;;;;6359969;27;20305;-69
2024/01/04 11:21:52;;;;;;;2.00;2.00;;;;;;;;;;6395681;27;20311;-66
2024/01/04 11:25:19;;;;;;;2.23;2.13;;;;;;;;;;6412811;27;20290;-68
2024/01/04 11:28:25;;;;;;;8.33;2.30;;;;;;;;;;6405960;27;20296;-69
2024/01/04 11:31:43;;;;;;;2.03;2.03;;;;;;;;;;6404747;27;20296;-68
2024/01/04 11:34:48;;;;;;;2.47;2.27;;;;;;;;;;6402402;27;20301;-69
2024/01/04 11:37:52;;;;;;;2.50;2.40;;;;;;;;;;6413423;27;20287;-69
2024/01/04 11:40:59;;;;;;;2.17;2.13;;;;;;;;;;6414154;27;20299;-69
2024/01/04 11:44:12;;;;;;;2.27;2.17;;;;;;;;;;6393774;27;20296;-73
2024/01/04 11:47:15;;;;;;;2.90;2.10;;;;;;;;;;6413725;27;20234;-68
2024/01/04 11:50:24;;;;;;;2.40;2.30;;;;;;;;;;6413366;27;20292;-70
2024/01/04 11:53:28;;;;;;;2.10;2.10;;;;;;;;;;6401492;27;20618;-69
2024/01/04 11:56:34;;;;;;;2.17;2.07;;;;;;;;;;6393641;27;20431;-69
2024/01/04 11:59:38;;;;;;;2.30;2.10;;;;;;;;;;6393593;27;20371;-69
2024/01/04 12:02:42;;;;;;;2.77;2.40;;;;;;;;;;6411772;27;20308;-69
2024/01/04 12:05:49;;;;;;;2.13;2.10;;;;;;;;;;6411731;27;20439;-70
2024/01/04 12:09:01;;;;;;;2.10;2.00;;;;;;;;;;6412634;27;20288;-70
2024/01/04 12:12:09;;;;;;;2.30;2.30;;;;;;;;;;6378294;27;20321;-69
2024/01/04 12:15:13;;;;;;;2.40;2.20;;;;;;;;;;6367872;27;20293;-69
2024/01/04 12:18:17;;;;;;;2.70;2.60;;;;;;;;;;6386274;27;20284;-69
2024/01/04 12:21:23;;;;;;;2.40;2.20;;;;;;;;;;6378281;27;20314;-71
2024/01/04 12:24:28;;;;;;;2.73;2.63;;;;;;;;;;6386533;27;20298;-71
2024/01/04 12:27:36;;;;;;;2.30;2.20;;;;;;;;;;6381381;27;20435;-67
2024/01/04 12:30:40;;;;;;;2.57;2.00;;;;;;;;;;6385493;27;20305;-70
2024/01/04 12:33:46;;;;;;;2.47;2.30;;;;;;;;;;6386172;27;20560;-69
2024/01/04 12:36:52;;;;;;;2.90;2.23;;;;;;;;;;6368152;27;20451;-69
2024/01/04 12:40:06;;;;;;;2.60;2.50;;;;;;;;;;6385573;27;20287;-68
2024/01/04 12:43:12;;;;;;;2.23;2.13;;;;;;;;;;6378226;27;20296;-69
2024/01/04 12:46:19;;;;;;;2.40;2.20;;;;;;;;;;6335753;28;20303;-69
2024/01/04 12:49:23;;;;;;;2.30;2.20;;;;;;;;;;6334957;28;20296;-69
2024/01/04 12:52:28;;;;;;;2.20;2.10;;;;;;;;;;6335432;28;20306;-69
2024/01/04 12:55:34;;;;;;;2.47;2.37;;;;;;;;;;6316384;28;20295;-67
2024/01/04 12:58:40;;;;;;;2.23;2.13;;;;;;;;;;6334920;28;20290;-70
2024/01/04 13:01:44;;;;;;;2.40;2.40;;;;;;;;;;6334884;28;20290;-69
2024/01/04 13:04:47;;;;;;;2.40;2.40;;;;;;;;;;6334134;28;20294;-68
2024/01/04 13:07:51;;;;;;;2.00;1.90;;;;;;;;;;6334258;28;20373;-67
2024/01/04 13:10:57;;;;;;;3.73;2.80;;;;;;;;;;6358573;27;20291;-68
2024/01/04 13:14:03;;;;;;;2.40;2.30;;;;;;;;;;6385298;27;20303;-69
2024/01/04 13:17:07;;;;;;;2.50;2.30;;;;;;;;;;6384392;27;20288;-68
2024/01/04 13:20:12;;;;;;;2.40;2.30;;;;;;;;;;6384877;27;20698;-69
2024/01/04 13:23:16;;;;;;;2.30;2.20;;;;;;;;;;6384866;27;20285;-69
2024/01/04 13:26:20;;;;;;;2.40;2.40;;;;;;;;;;6385908;27;20232;-69
2024/01/04 13:29:26;;;;;;;2.00;2.00;;;;;;;;;;6378552;27;20308;-69
2024/01/04 13:32:30;;;;;;;2.87;2.77;;;;;;;;;;6385427;27;20387;-69
2024/01/04 13:35:34;;;;;;;1.83;1.83;;;;;;;;;;6384719;27;20288;-69
2024/01/04 13:38:39;;;;;;;2.53;2.40;;;;;;;;;;6384880;27;20317;-69
2024/01/04 13:41:44;;;;;;;2.27;2.17;;;;;;;;;;6385701;27;20290;-69
2024/01/04 13:44:50;;;;;;;2.23;2.13;;;;;;;;;;6385410;27;20423;-69
2024/01/04 13:47:54;;;;;;;2.00;2.00;;;;;;;;;;6385191;27;20297;-68
2024/01/04 13:50:58;;;;;;;2.20;2.20;;;;;;;;;;6366804;28;20288;-68
2024/01/04 13:54:03;;;;;;;2.20;2.10;;;;;;;;;;6384818;27;20592;-69
2024/01/04 13:57:08;;;;;;;2.57;2.50;;;;;;;;;;6385653;28;20316;-69
2024/01/04 14:00:16;;;;;;;2.53;2.27;;;;;;;;;;6385703;27;20295;-69
2024/01/04 14:03:21;;;;;;;2.47;2.37;;;;;;;;;;6386512;28;20283;-69
2024/01/04 14:06:25;;;;;;;2.23;2.10;;;;;;;;;;6386356;28;20304;-69
2024/01/04 14:09:30;;;;;;;2.10;2.10;;;;;;;;;;6384000;27;20296;-69
2024/01/04 14:12:34;;;;;;;2.43;2.37;;;;;;;;;;6358980;28;20297;-69
2024/01/04 14:15:43;;;;;;;2.20;2.10;;;;;;;;;;6357052;28;20292;-71
2024/01/04 14:18:52;;;;;;;2.20;2.10;;;;;;;;;;6340705;28;20300;-70
2024/01/04 14:21:56;;;;;;;2.33;2.13;;;;;;;;;;6371055;28;20292;-68
2024/01/04 14:25:00;;;;;;;2.23;2.13;;;;;;;;;;6385709;27;20296;-69
2024/01/04 14:28:04;;;;;;;2.30;2.20;;;;;;;;;;6385875;27;20312;-69
2024/01/04 14:31:10;;;;;;;2.40;2.40;;;;;;;;;;6364208;28;20293;-70
2024/01/04 14:34:14;;;;;;;2.10;2.10;;;;;;;;;;6345002;28;20475;-69
2024/01/04 14:37:18;;;;;;;2.13;2.13;;;;;;;;;;6345231;28;20295;-68
2024/01/04 14:40:22;;;;;;;2.47;2.47;;;;;;;;;;6363599;28;20297;-69
2024/01/04 14:43:26;;;;;;;2.23;2.23;;;;;;;;;;6363110;28;20291;-69
2024/01/04 14:46:32;;;;;;;2.20;2.20;;;;;;;;;;6364161;28;20296;-68
2024/01/04 14:49:37;;;;;;;2.80;2.30;;;;;;;;;;6363628;28;20293;-68
2024/01/04 14:52:43;;;;;;;2.20;2.10;;;;;;;;;;6362970;28;20296;-68
2024/01/04 14:55:48;;;;;;;3.63;2.37;;;;;;;;;;6364327;28;20292;-68
2024/01/04 14:58:53;;;;;;;2.53;2.47;;;;;;;;;;6363241;28;20300;-69
2024/01/04 15:01:58;;;;;;;2.77;2.67;;;;;;;;;;6363955;28;20596;-68
2024/01/04 15:05:03;;;;;;;2.50;2.40;;;;;;;;;;6361007;28;20296;-69
2024/01/04 15:08:07;;;;;;;2.37;2.27;;;;;;;;;;6360323;28;20300;-68
2024/01/04 15:11:11;;;;;;;4.83;2.30;;;;;;;;;;6360576;28;20237;-69
2024/01/04 15:14:18;;;;;;;2.50;2.40;;;;;;;;;;6353206;28;20292;-69
2024/01/04 15:17:25;;;;;;;2.60;2.50;;;;;;;;;;6355613;28;20297;-70
2024/01/04 15:20:29;;;;;;;2.40;2.40;;;;;;;;;;6368060;27;20297;-69
2024/01/04 15:23:33;;;;;;;2.07;2.07;;;;;;;;;;6369626;27;20308;-69
2024/01/04 15:26:37;;;;;;;2.53;2.30;;;;;;;;;;6388718;27;20295;-69
2024/01/04 15:29:41;;;;;;;2.90;2.77;;;;;;;;;;6388133;27;20394;-69
2024/01/04 15:32:47;;;;;;;2.70;2.60;;;;;;;;;;6369365;27;20445;-68
2024/01/04 15:35:52;;;;;;;2.87;2.53;;;;;;;;;;6388536;27;20366;-69
2024/01/04 15:38:56;;;;;;;2.70;2.50;;;;;;;;;;6387610;27;20290;-68
2024/01/04 15:42:01;;;;;;;2.47;2.37;;;;;;;;;;6387954;27;20488;-69
2024/01/04 15:45:06;;;;;;;2.20;2.10;;;;;;;;;;6387921;27;20576;-69
2024/01/04 15:48:11;;;;;;;2.43;2.33;;;;;;;;;;6387075;27;20301;-69
2024/01/04 15:51:19;;;;;;;2.40;2.30;;;;;;;;;;6388676;27;20292;-70
2024/01/04 15:54:24;;;;;;;2.30;2.20;;;;;;;;;;6387350;27;20303;-69
2024/01/04 15:57:28;;;;;;;2.27;2.27;;;;;;;;;;6387998;27;20288;-69
2024/01/04 16:00:32;;;;;;;2.53;2.00;;;;;;;;;;6368811;27;20307;-69
2024/01/04 16:03:39;;;;;;;2.13;2.03;;;;;;;;;;6367815;27;20364;-70
2024/01/04 16:06:45;;;;;;;2.37;2.13;;;;;;;;;;6387994;27;20299;-69
2024/01/04 16:09:49;;;;;;;2.03;1.97;;;;;;;;;;6387010;27;20292;-68
2024/01/04 16:12:53;;;;;;;2.10;2.10;;;;;;;;;;6386683;27;20292;-69
2024/01/04 16:15:57;;;;;;;2.33;2.23;;;;;;;;;;6387292;27;20288;-69
2024/01/04 16:19:03;;;;;;;2.27;2.17;;;;;;;;;;6384201;27;20303;-70
2024/01/04 16:22:07;;;;;;;1.90;1.90;;;;;;;;;;6382104;27;20309;-70
2024/01/04 16:25:11;;;;;;;2.20;2.10;;;;;;;;;;6387204;27;20288;-69
2024/01/04 16:28:20;;;;;;;2.10;2.10;;;;;;;;;;6362915;27;20437;-69
2024/01/04 16:31:24;;;;;;;2.13;2.13;;;;;;;;;;6360749;28;20288;-70
2024/01/04 16:34:30;;;;;;;2.43;2.33;;;;;;;;;;6361056;28;20305;-70
2024/01/04 16:37:35;;;;;;;2.73;2.60;;;;;;;;;;6360774;28;20309;-70
2024/01/04 16:40:40;;;;;;;2.80;2.60;;;;;;;;;;6361401;28;20320;-70
2024/01/04 16:43:44;;;;;;;2.50;2.40;;;;;;;;;;6361144;28;20302;-70
2024/01/04 16:46:48;;;;;;;2.47;2.33;;;;;;;;;;6361263;28;20345;-70
2024/01/04 16:49:54;;;;;;;1.90;1.87;;;;;;;;;;6359995;28;20295;-69
2024/01/04 16:52:58;;;;;;;2.20;2.10;;;;;;;;;;6360746;28;20289;-70
2024/01/04 16:56:02;;;;;;;2.37;2.37;;;;;;;;;;6361081;28;20285;-70
2024/01/04 16:59:06;;;;;;;1.83;1.83;;;;;;;;;;6357879;28;20288;-70
2024/01/04 17:02:11;;;;;;;2.27;2.17;;;;;;;;;;6359348;28;20311;-70
2024/01/04 17:05:18;;;;;;;2.37;2.27;;;;;;;;;;6361778;28;20297;-70
2024/01/04 17:08:22;;;;;;;2.20;2.20;;;;;;;;;;6360176;28;20289;-70
2024/01/04 17:11:26;;;;;;;2.40;2.30;;;;;;;;;;6359186;28;20305;-70
2024/01/04 17:14:30;;;;;;;2.63;2.53;;;;;;;;;;6358476;28;20627;-69
2024/01/04 17:17:34;;;;;;;2.40;2.20;;;;;;;;;;6355716;28;20290;-70
2024/01/04 17:20:39;;;;;;;1.87;1.87;;;;;;;;;;6366707;27;20296;-69
2024/01/04 17:23:43;;;;;;;2.30;2.20;;;;;;;;;;6385155;27;20705;-69
2024/01/04 17:26:47;;;;;;;2.10;2.10;;;;;;;;;;6386065;27;20284;-69
2024/01/04 17:29:51;;;;;;;2.10;2.10;;;;;;;;;;6385075;27;20294;-69
2024/01/04 17:33:00;;;;;;;1.90;1.90;;;;;;;;;;6384722;27;20467;-69
2024/01/04 17:36:07;;;;;;;2.33;2.23;;;;;;;;;;6386128;27;20296;-69
2024/01/04 17:39:29;;;;;;;2.20;2.03;;;;;;;;;;6385138;27;20292;-68
2024/01/04 17:42:33;;;;;;;4.60;3.30;;;;;;;;;;6366645;28;20480;-68
2024/01/04 17:45:37;;;;;;;2.50;2.40;;;;;;;;;;6384156;28;20287;-68
2024/01/04 17:48:41;;;;;;;2.33;2.23;;;;;;;;;;6384640;28;20305;-68
2024/01/04 17:51:47;;;;;;;1.90;1.87;;;;;;;;;;6385706;28;20296;-69
2024/01/04 17:54:52;;;;;;;3.07;2.20;;;;;;;;;;6384291;28;20303;-68
2024/01/04 17:57:59;;;;;;;2.10;2.10;;;;;;;;;;6384624;28;20285;-68
2024/01/04 18:01:04;;;;;;;2.00;2.00;;;;;;;;;;6366788;27;20292;-68
2024/01/04 18:04:08;;;;;;;2.60;2.50;;;;;;;;;;6369983;27;20299;-67
2024/01/04 18:07:14;;;;;;;2.40;2.20;;;;;;;;;;6388723;27;20300;-68
2024/01/04 18:10:18;;;;;;;3.40;2.33;;;;;;;;;;6389445;27;20295;-69
2024/01/04 18:13:22;;;;;;;2.37;2.33;;;;;;;;;;6378342;27;20289;-69
2024/01/04 18:16:26;;;;;;;2.13;2.13;;;;;;;;;;6386499;27;20283;-70
2024/01/04 18:19:30;;;;;;;1.90;1.90;;;;;;;;;;6373339;27;20293;-70
2024/01/04 18:22:36;;;;;;;2.23;2.23;;;;;;;;;;6385729;27;20277;-70
2024/01/04 18:25:40;;;;;;;2.17;2.17;;;;;;;;;;6389999;27;20256;-70
2024/01/04 18:28:44;;;;;;;2.50;2.30;;;;;;;;;;6389447;27;20471;-72